Página principal
METAR-TAF:

METAR-TAF

Aeroportos :

Aeroporto Federico García Lorca Granada-Jaén

Granada, Espanha

latitude: 37-11N, longitude: 003-47W, altura: 567 m

Observação actual do tempo

O boletim foi feito há 31 minutos, às 18:00 UTC
Vento 9 kt de sul
Temperatura 10°C
Humidade 66%
Pressão 1028 hPa
Visibilidade 10 km ou mais
sem nuvens abaixo de 1500 metros e sem cumulonimbus

METAR: LEGR 171800Z 17009KT CAVOK 10/04 Q1028

Hora: 19:31 (18:31 UTC)

Previsão

O boletim foi feito há 1 hora e 31 minutos, às 17:00 UTC
Previsão válida de 17 às 18 UTC a 18 às 18 UTC
Vento 8 kt de sul
Visibilidade 10 km ou mais
sem nuvens abaixo de 1500 metros e sem cumulonimbus

TAF: LEGR 171700Z 1718/1818 19008KT CAVOK TX16/1814Z TN00/1806Z

Observações e previsões do tempo de mais de 4000 aeroportos (mensagens METAR e TAF).

As estações disponíveis são os pontos amarelos e vermelhos sobre o mapa.

Mova o rato sobre o mapa para ver o nome da estação.

Depois clique no ponto para visualizar as observações e previsões meteorológicas.

Para alterar o mapa : clique nos botões verdes com uma cruz preta para aumentar o zoom; no botão verde com uma pitada de zoom; ou nas setas verdes para mapas adjacentes.


METAR-TAF: